createdAt,value
2017-10-13T00:00:42.455Z,0
2017-10-13T00:01:51.457Z,0
2017-10-13T00:03:00.117Z,0
2017-10-13T00:04:09.150Z,0
2017-10-13T00:05:18.812Z,0
2017-10-13T00:06:27.829Z,0
2017-10-13T00:07:36.813Z,0
2017-10-13T00:08:45.809Z,0
2017-10-13T00:09:55.473Z,0
2017-10-13T00:11:04.814Z,0
2017-10-13T00:12:13.802Z,0
2017-10-13T00:13:23.450Z,0
2017-10-13T00:14:32.163Z,0
2017-10-13T00:15:41.813Z,0
2017-10-13T00:16:50.820Z,0
2017-10-13T00:17:59.811Z,0
2017-10-13T00:19:09.240Z,0
2017-10-13T00:20:18.238Z,0
2017-10-13T00:21:27.248Z,0
2017-10-13T00:22:35.914Z,0
2017-10-13T00:23:45.225Z,0
2017-10-13T00:24:54.564Z,0
2017-10-13T00:26:03.221Z,0
2017-10-13T00:27:12.215Z,0
2017-10-13T00:28:20.861Z,0
2017-10-13T00:29:30.502Z,0
2017-10-13T00:30:39.840Z,0
2017-10-13T00:31:48.501Z,0
2017-10-13T00:32:57.834Z,0
2017-10-13T00:34:06.836Z,0
2017-10-13T00:35:16.157Z,0
2017-10-13T00:36:25.845Z,0
2017-10-13T00:37:35.166Z,0
2017-10-13T00:38:43.817Z,0
2017-10-13T00:39:52.465Z,0
2017-10-13T00:41:02.141Z,0
2017-10-13T00:42:11.546Z,0
2017-10-13T00:43:20.874Z,0
2017-10-13T00:44:30.198Z,0
2017-10-13T00:45:39.188Z,0
2017-10-13T00:46:48.497Z,0
2017-10-13T00:47:57.475Z,0
2017-10-13T00:49:06.127Z,0
2017-10-13T00:50:14.779Z,0
2017-10-13T00:51:23.428Z,0
2017-10-13T00:52:32.735Z,0
2017-10-13T00:53:41.505Z,0
2017-10-13T00:54:50.190Z,0
2017-10-13T00:55:58.899Z,0
2017-10-13T00:57:07.563Z,0
2017-10-13T00:58:16.864Z,0
2017-10-13T00:59:25.862Z,0
2017-10-13T01:00:34.523Z,0
2017-10-13T01:01:43.506Z,0
2017-10-13T01:02:52.176Z,0
2017-10-13T01:04:01.481Z,0
2017-10-13T01:05:10.150Z,0
2017-10-13T01:06:19.142Z,0
2017-10-13T01:07:28.449Z,0
2017-10-13T01:08:37.092Z,0
2017-10-13T01:09:46.442Z,0
2017-10-13T01:10:55.087Z,0
2017-10-13T01:12:04.764Z,0
2017-10-13T01:13:13.528Z,0
2017-10-13T01:14:22.523Z,0
2017-10-13T01:15:31.214Z,0
2017-10-13T01:16:39.912Z,0
2017-10-13T01:17:48.975Z,0
2017-10-13T01:18:57.980Z,0
2017-10-13T01:20:06.984Z,0
2017-10-13T01:21:15.963Z,0
2017-10-13T01:22:25.042Z,0
2017-10-13T01:23:33.738Z,0
2017-10-13T01:24:42.722Z,0
2017-10-13T01:25:51.380Z,0
2017-10-13T01:27:00.696Z,0
2017-10-13T01:28:09.667Z,0
2017-10-13T01:29:19.001Z,0
2017-10-13T01:30:27.677Z,0
2017-10-13T01:31:36.668Z,0
2017-10-13T01:32:45.998Z,0
2017-10-13T01:33:54.672Z,0
2017-10-13T01:35:04.672Z,0
2017-10-13T01:36:13.661Z,0
2017-10-13T01:37:22.637Z,0
2017-10-13T01:38:31.610Z,0
2017-10-13T01:39:40.911Z,0
2017-10-13T01:40:49.894Z,0
2017-10-13T01:41:59.231Z,0
2017-10-13T01:43:08.248Z,0
2017-10-13T01:44:17.257Z,0
2017-10-13T01:45:26.695Z,0
2017-10-13T01:46:35.728Z,0
2017-10-13T01:47:44.710Z,0
2017-10-13T01:48:54.339Z,0
2017-10-13T01:50:02.998Z,0
2017-10-13T01:51:12.320Z,0
2017-10-13T01:52:21.308Z,0
2017-10-13T01:53:30.620Z,0
2017-10-13T01:54:39.344Z,0
2017-10-13T01:55:48.335Z,0
2017-10-13T01:56:57.980Z,0
2017-10-13T01:58:07.959Z,0
2017-10-13T01:59:16.960Z,0
2017-10-13T02:00:25.942Z,0
2017-10-13T02:01:34.952Z,0
2017-10-13T02:02:43.625Z,0
2017-10-13T02:03:52.284Z,0
2017-10-13T02:05:01.271Z,0
2017-10-13T02:06:10.271Z,0
2017-10-13T02:07:18.938Z,0
2017-10-13T02:08:28.676Z,0
2017-10-13T02:09:37.351Z,0
2017-10-13T02:10:47.000Z,0
2017-10-13T02:11:55.645Z,0
2017-10-13T02:13:04.985Z,0
2017-10-13T02:14:13.989Z,0
2017-10-13T02:15:23.295Z,0
2017-10-13T02:16:32.646Z,0
2017-10-13T02:17:41.640Z,0
2017-10-13T02:18:50.627Z,0
2017-10-13T02:19:59.332Z,0
2017-10-13T02:21:08.347Z,0
2017-10-13T02:22:17.334Z,0
2017-10-13T02:23:26.003Z,0
2017-10-13T02:24:35.334Z,0
2017-10-13T02:25:44.662Z,0
2017-10-13T02:26:53.651Z,0
2017-10-13T02:28:02.983Z,0
2017-10-13T02:29:12.279Z,0
2017-10-13T02:30:21.924Z,0
2017-10-13T02:31:30.923Z,0
2017-10-13T02:32:40.581Z,0
2017-10-13T02:33:49.889Z,0
2017-10-13T02:34:58.880Z,0
2017-10-13T02:36:07.877Z,0
2017-10-13T02:37:16.552Z,0
2017-10-13T02:38:25.526Z,0
2017-10-13T02:39:34.874Z,0
2017-10-13T02:40:44.174Z,0
2017-10-13T02:41:53.149Z,0
2017-10-13T02:43:02.819Z,0
2017-10-13T02:44:11.816Z,0
2017-10-13T02:45:20.497Z,0
2017-10-13T02:46:29.154Z,0
2017-10-13T02:47:38.465Z,0
2017-10-13T02:48:47.770Z,0
2017-10-13T02:49:57.115Z,0
2017-10-13T02:51:06.103Z,0
2017-10-13T02:52:15.092Z,0
2017-10-13T02:53:24.409Z,0
2017-10-13T02:54:33.409Z,0
2017-10-13T02:55:42.409Z,0
2017-10-13T02:56:51.055Z,0
2017-10-13T02:57:59.740Z,0
2017-10-13T02:59:09.046Z,0
2017-10-13T03:00:17.765Z,0
2017-10-13T03:01:26.424Z,0
2017-10-13T03:02:35.760Z,0
2017-10-13T03:03:44.755Z,0
2017-10-13T03:04:54.065Z,0
2017-10-13T03:06:02.733Z,0
2017-10-13T03:07:12.418Z,0
2017-10-13T03:08:21.403Z,0
2017-10-13T03:09:30.769Z,0
2017-10-13T03:10:40.458Z,0
2017-10-13T03:11:49.791Z,0
2017-10-13T03:12:58.450Z,0
2017-10-13T03:14:07.167Z,0
2017-10-13T03:15:16.485Z,0
2017-10-13T03:16:25.139Z,0
2017-10-13T03:17:33.784Z,0
2017-10-13T03:18:42.769Z,0
2017-10-13T03:19:51.408Z,0
2017-10-13T03:21:01.049Z,0
2017-10-13T03:22:10.021Z,0
2017-10-13T03:23:19.019Z,0
2017-10-13T03:24:27.995Z,0
2017-10-13T03:25:36.637Z,0
2017-10-13T03:26:45.623Z,0
2017-10-13T03:27:54.643Z,0
2017-10-13T03:29:04.297Z,0
2017-10-13T03:30:12.945Z,0
2017-10-13T03:31:22.262Z,0
2017-10-13T03:32:31.572Z,0
2017-10-13T03:33:40.881Z,0
2017-10-13T03:34:49.865Z,0
2017-10-13T03:35:59.499Z,0
2017-10-13T03:37:08.840Z,0
2017-10-13T03:38:17.828Z,0
2017-10-13T03:39:26.482Z,0
2017-10-13T03:40:35.575Z,0
2017-10-13T03:41:44.880Z,0
2017-10-13T03:42:53.876Z,0
2017-10-13T03:44:02.553Z,0
2017-10-13T03:45:11.215Z,0
2017-10-13T03:46:20.580Z,0
2017-10-13T03:47:29.606Z,0
2017-10-13T03:48:38.282Z,0
2017-10-13T03:49:47.287Z,0
2017-10-13T03:50:56.949Z,0
2017-10-13T03:52:06.595Z,0
2017-10-13T03:53:15.604Z,0
2017-10-13T03:54:24.622Z,0
2017-10-13T03:55:33.928Z,0
2017-10-13T03:56:42.926Z,0
2017-10-13T03:57:51.906Z,0
2017-10-13T03:59:01.204Z,0
2017-10-13T04:00:10.855Z,0
2017-10-13T04:01:19.576Z,0
2017-10-13T04:02:28.561Z,0
2017-10-13T04:03:38.231Z,0
2017-10-13T04:04:47.872Z,0
2017-10-13T04:05:56.861Z,0
2017-10-13T04:07:06.185Z,0
2017-10-13T04:08:15.184Z,0
2017-10-13T04:09:24.492Z,0
2017-10-13T04:10:33.479Z,0
2017-10-13T04:11:43.137Z,0
2017-10-13T04:12:52.127Z,0
2017-10-13T04:14:01.436Z,0
2017-10-13T04:15:10.493Z,0
2017-10-13T04:16:19.472Z,0
2017-10-13T04:17:28.460Z,0
2017-10-13T04:18:37.217Z,0
2017-10-13T04:19:46.189Z,0
2017-10-13T04:20:55.165Z,0
2017-10-13T04:22:04.479Z,0
2017-10-13T04:23:13.465Z,0
2017-10-13T04:24:22.803Z,0
2017-10-13T04:25:32.452Z,0
2017-10-13T04:26:41.123Z,0
2017-10-13T04:27:50.114Z,0
2017-10-13T04:28:59.437Z,0
2017-10-13T04:30:08.768Z,0
2017-10-13T04:31:17.767Z,0
2017-10-13T04:32:26.415Z,0
2017-10-13T04:33:35.735Z,0
2017-10-13T04:34:44.735Z,0
2017-10-13T04:35:53.716Z,0
2017-10-13T04:37:02.707Z,0
2017-10-13T04:38:12.029Z,0
2017-10-13T04:39:20.670Z,0
2017-10-13T04:40:29.687Z,0
2017-10-13T04:41:39.357Z,0
2017-10-13T04:42:48.338Z,0
2017-10-13T04:43:57.662Z,0
2017-10-13T04:45:06.315Z,0
2017-10-13T04:46:14.972Z,0
2017-10-13T04:47:23.626Z,0
2017-10-13T04:48:32.607Z,0
2017-10-13T04:49:41.949Z,0
2017-10-13T04:50:50.942Z,0
2017-10-13T04:51:59.604Z,0
2017-10-13T04:53:08.924Z,0
2017-10-13T04:54:17.900Z,0
2017-10-13T04:55:26.871Z,0
2017-10-13T04:56:35.540Z,0
2017-10-13T04:57:44.926Z,0
2017-10-13T04:58:53.585Z,0
2017-10-13T05:00:02.910Z,0
2017-10-13T05:01:12.232Z,0
2017-10-13T05:02:21.568Z,0
2017-10-13T05:03:30.593Z,0
2017-10-13T05:04:40.085Z,0
2017-10-13T05:05:49.398Z,0
2017-10-13T05:06:58.414Z,0
2017-10-13T05:08:07.748Z,0
2017-10-13T05:09:16.402Z,0
2017-10-13T05:10:25.449Z,0
2017-10-13T05:11:34.463Z,0
2017-10-13T05:12:43.125Z,0
2017-10-13T05:13:52.108Z,0
2017-10-13T05:15:01.487Z,0
2017-10-13T05:16:11.465Z,0
2017-10-13T05:17:20.128Z,0
2017-10-13T05:18:29.464Z,0
2017-10-13T05:19:38.473Z,0
2017-10-13T05:20:47.473Z,0
2017-10-13T05:21:57.451Z,0
2017-10-13T05:23:06.825Z,0
2017-10-13T05:24:15.808Z,0
2017-10-13T05:25:24.802Z,0
2017-10-13T05:26:33.781Z,0
2017-10-13T05:27:43.414Z,0
2017-10-13T05:28:52.732Z,0
2017-10-13T05:30:02.035Z,0
2017-10-13T05:31:11.343Z,0
2017-10-13T05:32:21.011Z,0
2017-10-13T05:33:30.345Z,0
2017-10-13T05:34:39.687Z,0
2017-10-13T05:35:48.762Z,0
2017-10-13T05:36:57.760Z,0
2017-10-13T05:38:06.758Z,0
2017-10-13T05:39:15.797Z,0
2017-10-13T05:40:24.452Z,0
2017-10-13T05:41:33.441Z,0
2017-10-13T05:42:42.792Z,0
2017-10-13T05:43:51.792Z,0
2017-10-13T05:45:00.463Z,0
2017-10-13T05:46:09.810Z,0
2017-10-13T05:47:19.156Z,0
2017-10-13T05:48:28.468Z,0
2017-10-13T05:49:37.134Z,0
2017-10-13T05:50:45.812Z,0
2017-10-13T05:51:55.833Z,0
2017-10-13T05:53:05.233Z,0
2017-10-13T05:54:14.616Z,0
2017-10-13T05:55:24.817Z,0
2017-10-13T05:56:34.541Z,0
2017-10-13T05:57:43.542Z,0
2017-10-13T05:58:52.196Z,0
2017-10-13T06:00:01.324Z,0
2017-10-13T06:01:10.683Z,0
2017-10-13T06:02:19.357Z,0
2017-10-13T06:03:28.341Z,0
2017-10-13T06:04:37.529Z,0
2017-10-13T06:05:46.937Z,0
2017-10-13T06:06:55.635Z,0
2017-10-13T06:08:04.938Z,0
2017-10-13T06:09:14.006Z,0
2017-10-13T06:10:23.007Z,0
2017-10-13T06:11:32.064Z,0
2017-10-13T06:12:40.788Z,0
2017-10-13T06:13:49.442Z,0
2017-10-13T06:14:58.765Z,0
2017-10-13T06:16:08.148Z,0
2017-10-13T06:17:17.168Z,0
2017-10-13T06:18:26.186Z,0
2017-10-13T06:19:35.185Z,0
2017-10-13T06:20:44.525Z,0
2017-10-13T06:21:53.187Z,0
2017-10-13T06:23:03.195Z,0
2017-10-13T06:24:11.871Z,5
2017-10-13T06:25:21.177Z,5
2017-10-13T06:26:29.897Z,5
2017-10-13T06:27:38.609Z,5
2017-10-13T06:28:47.955Z,5
2017-10-13T06:29:56.953Z,5
2017-10-13T06:31:06.282Z,5
2017-10-13T06:32:15.919Z,5
2017-10-13T06:33:24.909Z,5
2017-10-13T06:34:33.891Z,0
2017-10-13T06:35:43.215Z,0
2017-10-13T06:36:52.209Z,0
2017-10-13T06:38:01.188Z,0
2017-10-13T06:39:10.205Z,0
2017-10-13T06:40:19.532Z,0
2017-10-13T06:41:28.547Z,0
2017-10-13T06:42:37.880Z,0
2017-10-13T06:43:47.259Z,0
2017-10-13T06:44:56.576Z,0
2017-10-13T06:46:05.915Z,0
2017-10-13T06:47:15.234Z,0
2017-10-13T06:48:24.222Z,0
2017-10-13T06:49:33.845Z,0
2017-10-13T06:50:42.608Z,0
2017-10-13T06:51:52.246Z,0
2017-10-13T06:53:01.248Z,0
2017-10-13T06:54:10.911Z,0
2017-10-13T06:55:19.576Z,0
2017-10-13T06:56:28.902Z,5
2017-10-13T06:57:37.921Z,5
2017-10-13T06:58:47.566Z,5
2017-10-13T06:59:56.561Z,5
2017-10-13T07:01:06.214Z,0
2017-10-13T07:02:15.207Z,0
2017-10-13T07:03:24.516Z,5
2017-10-13T07:04:33.177Z,5
2017-10-13T07:05:42.495Z,5
2017-10-13T07:06:51.486Z,0
2017-10-13T07:08:00.178Z,0
2017-10-13T07:09:09.150Z,0
2017-10-13T07:10:18.779Z,0
2017-10-13T07:11:27.761Z,0
2017-10-13T07:12:36.737Z,5
2017-10-13T07:13:46.704Z,5
2017-10-13T07:14:55.717Z,5
2017-10-13T07:16:05.054Z,5
2017-10-13T07:17:13.711Z,10
2017-10-13T07:18:23.063Z,5
2017-10-13T07:20:40.440Z,5
2017-10-13T07:21:49.444Z,5
2017-10-13T07:22:58.430Z,5
2017-10-13T07:24:07.417Z,10
2017-10-13T07:25:16.480Z,5
2017-10-13T07:26:25.450Z,5
2017-10-13T07:27:34.760Z,5
2017-10-13T07:28:44.082Z,5
2017-10-13T07:29:54.083Z,5
2017-10-13T07:31:03.166Z,5
2017-10-13T07:32:12.498Z,0
2017-10-13T07:33:22.150Z,0
2017-10-13T07:34:31.537Z,5
2017-10-13T07:35:40.517Z,5
2017-10-13T07:36:49.555Z,5
2017-10-13T07:37:58.203Z,5
2017-10-13T07:39:07.209Z,5
2017-10-13T07:40:16.501Z,5
2017-10-13T07:41:25.492Z,10
2017-10-13T07:42:34.863Z,10
2017-10-13T07:43:44.190Z,15
2017-10-13T07:44:53.200Z,15
2017-10-13T07:46:02.327Z,15
2017-10-13T07:47:11.698Z,10
2017-10-13T07:48:21.088Z,10
2017-10-13T07:49:29.755Z,10
2017-10-13T07:50:38.733Z,10
2017-10-13T07:51:48.059Z,10
2017-10-13T07:52:57.742Z,5
2017-10-13T07:54:06.721Z,5
2017-10-13T07:55:15.390Z,5
2017-10-13T07:56:24.069Z,5
2017-10-13T07:57:33.063Z,10
2017-10-13T07:58:41.783Z,15
2017-10-13T07:59:50.541Z,30
2017-10-13T08:00:59.594Z,20
2017-10-13T08:02:08.608Z,10
2017-10-13T08:03:17.599Z,15
2017-10-13T08:04:26.908Z,10
2017-10-13T08:05:36.251Z,10
2017-10-13T08:06:45.892Z,5
2017-10-13T08:07:55.562Z,5
2017-10-13T08:09:04.900Z,10
2017-10-13T08:10:13.914Z,10
2017-10-13T08:11:23.257Z,5
2017-10-13T08:12:32.570Z,5
2017-10-13T08:13:41.900Z,5
2017-10-13T08:14:50.905Z,5
2017-10-13T08:15:59.931Z,5
2017-10-13T08:17:09.332Z,10
2017-10-13T08:18:19.100Z,10
2017-10-13T08:19:28.798Z,15
2017-10-13T08:20:38.124Z,10
2017-10-13T08:21:48.103Z,10
2017-10-13T08:22:56.817Z,10
2017-10-13T08:24:06.153Z,10
2017-10-13T08:25:15.856Z,10
2017-10-13T08:26:24.852Z,5
2017-10-13T08:27:33.527Z,10
2017-10-13T08:28:43.195Z,10
2017-10-13T08:29:52.512Z,10
2017-10-13T08:31:01.499Z,15
2017-10-13T08:32:11.151Z,10
2017-10-13T08:33:20.126Z,10
2017-10-13T08:34:29.235Z,10
2017-10-13T08:35:38.225Z,15
2017-10-13T08:36:46.898Z,15
2017-10-13T08:37:56.422Z,10
2017-10-13T08:39:07.266Z,10
2017-10-13T08:40:16.251Z,10
2017-10-13T08:41:25.574Z,15
2017-10-13T08:42:34.570Z,15
2017-10-13T08:43:43.894Z,15
2017-10-13T08:44:52.907Z,20
2017-10-13T08:46:01.566Z,25
2017-10-13T08:47:10.545Z,30
2017-10-13T08:48:19.912Z,30
2017-10-13T08:49:28.580Z,25
2017-10-13T08:50:37.592Z,25
2017-10-13T08:51:46.597Z,25
2017-10-13T08:52:55.687Z,30
2017-10-13T08:54:04.720Z,40
2017-10-13T08:55:13.398Z,35
2017-10-13T08:56:22.388Z,35
2017-10-13T08:57:31.060Z,40
2017-10-13T08:58:39.727Z,45
2017-10-13T08:59:48.412Z,50
2017-10-13T09:00:57.395Z,35
2017-10-13T09:02:07.035Z,35
2017-10-13T09:03:16.668Z,40
2017-10-13T09:04:25.317Z,40
2017-10-13T09:05:34.327Z,30
2017-10-13T09:06:43.007Z,25
2017-10-13T09:07:52.377Z,30
2017-10-13T09:09:01.371Z,30
2017-10-13T09:10:11.084Z,20
2017-10-13T09:11:20.393Z,25
2017-10-13T09:12:29.734Z,20
2017-10-13T09:13:38.385Z,10
2017-10-13T09:14:47.365Z,15
2017-10-13T09:15:56.669Z,10
2017-10-13T09:17:06.003Z,15
2017-10-13T09:18:14.716Z,15
2017-10-13T09:19:23.381Z,10
2017-10-13T09:20:32.365Z,15
2017-10-13T09:21:41.416Z,15
2017-10-13T09:22:50.431Z,20
2017-10-13T09:23:59.416Z,10
2017-10-13T09:25:08.399Z,15
2017-10-13T09:26:18.078Z,15
2017-10-13T09:27:27.596Z,10
2017-10-13T09:28:36.922Z,15
2017-10-13T09:29:45.581Z,20
2017-10-13T09:30:54.239Z,20
2017-10-13T09:32:03.239Z,25
2017-10-13T09:33:12.053Z,30
2017-10-13T09:34:21.055Z,25
2017-10-13T09:35:30.071Z,30
2017-10-13T09:36:39.116Z,35
2017-10-13T09:37:48.150Z,40
2017-10-13T09:38:57.150Z,35
2017-10-13T09:40:06.141Z,40
2017-10-13T09:41:14.824Z,45
2017-10-13T09:42:23.848Z,35
2017-10-13T09:43:32.582Z,40
2017-10-13T09:44:41.246Z,35
2017-10-13T09:45:49.918Z,40
2017-10-13T09:46:58.581Z,40
2017-10-13T09:48:08.593Z,35
2017-10-13T09:49:17.672Z,30
2017-10-13T09:50:27.315Z,25
2017-10-13T09:51:36.303Z,30
2017-10-13T09:52:45.646Z,30
2017-10-13T09:53:54.687Z,35
2017-10-13T09:55:03.374Z,40
2017-10-13T09:56:12.378Z,35
2017-10-13T09:57:21.042Z,30
2017-10-13T09:58:30.398Z,25
2017-10-13T09:59:39.732Z,25
2017-10-13T10:00:48.773Z,35
2017-10-13T10:01:58.411Z,40
2017-10-13T10:03:07.403Z,40
2017-10-13T10:04:16.728Z,35
2017-10-13T10:05:25.724Z,40
2017-10-13T10:06:34.745Z,35
2017-10-13T10:07:43.414Z,30
2017-10-13T10:08:53.104Z,30
2017-10-13T10:10:02.153Z,35
2017-10-13T10:11:11.130Z,30
2017-10-13T10:12:20.802Z,30
2017-10-13T10:13:30.448Z,35
2017-10-13T10:14:39.218Z,35
2017-10-13T10:15:48.239Z,25
2017-10-13T10:16:57.551Z,30
2017-10-13T10:18:06.868Z,25
2017-10-13T10:19:15.544Z,20
2017-10-13T10:20:24.196Z,20
2017-10-13T10:21:33.274Z,25
2017-10-13T10:22:42.250Z,20
2017-10-13T10:23:50.928Z,15
2017-10-13T10:25:00.238Z,20
2017-10-13T10:26:09.239Z,35
2017-10-13T10:27:17.913Z,45
2017-10-13T10:28:27.235Z,30
2017-10-13T10:29:36.232Z,35
2017-10-13T10:30:45.255Z,30
2017-10-13T10:31:54.901Z,35
2017-10-13T10:33:03.559Z,35
2017-10-13T10:34:12.224Z,40
2017-10-13T10:35:21.218Z,35
2017-10-13T10:36:29.932Z,30
2017-10-13T10:37:39.248Z,25
2017-10-13T10:38:48.566Z,25
2017-10-13T10:39:57.886Z,25
2017-10-13T10:41:06.884Z,30
2017-10-13T10:42:16.203Z,30
2017-10-13T10:43:25.211Z,25
2017-10-13T10:44:33.875Z,35
2017-10-13T10:45:42.586Z,40
2017-10-13T10:46:51.911Z,35
2017-10-13T10:48:00.998Z,30
2017-10-13T10:49:09.994Z,25
2017-10-13T10:50:19.016Z,30
2017-10-13T10:51:28.006Z,20
2017-10-13T10:52:37.331Z,30
2017-10-13T10:53:47.309Z,25
2017-10-13T10:54:56.304Z,30
2017-10-13T10:56:05.306Z,30
2017-10-13T10:57:14.003Z,35
2017-10-13T10:58:23.335Z,40
2017-10-13T10:59:32.385Z,40
2017-10-13T11:00:41.699Z,40
2017-10-13T11:01:51.341Z,35
2017-10-13T11:03:00.701Z,35
2017-10-13T11:04:09.363Z,30
2017-10-13T11:05:18.338Z,35
2017-10-13T11:06:27.316Z,30
2017-10-13T11:07:35.995Z,35
2017-10-13T11:08:44.679Z,40
2017-10-13T11:09:53.665Z,40
2017-10-13T11:11:02.363Z,40
2017-10-13T11:12:11.355Z,35
2017-10-13T11:13:20.663Z,35
2017-10-13T11:14:29.665Z,35
2017-10-13T11:15:39.306Z,30
2017-10-13T11:16:48.420Z,25
2017-10-13T11:17:57.419Z,15
2017-10-13T11:19:06.739Z,20
2017-10-13T11:20:15.385Z,20
2017-10-13T11:21:25.029Z,20
2017-10-13T11:22:34.021Z,25
2017-10-13T11:23:43.000Z,25
2017-10-13T11:24:51.991Z,25
2017-10-13T11:26:00.981Z,25
2017-10-13T11:27:09.639Z,25
2017-10-13T11:28:18.625Z,35
2017-10-13T11:29:27.605Z,30
2017-10-13T11:30:36.582Z,20
2017-10-13T11:31:45.554Z,20
2017-10-13T11:32:55.232Z,20
2017-10-13T11:34:04.289Z,20
2017-10-13T11:35:12.992Z,20
2017-10-13T11:36:21.980Z,20
2017-10-13T11:37:31.003Z,20
2017-10-13T11:38:39.997Z,20
2017-10-13T11:39:49.734Z,20
2017-10-13T11:40:58.400Z,20
2017-10-13T11:42:08.400Z,20
2017-10-13T11:43:17.386Z,20
2017-10-13T11:44:26.069Z,15
2017-10-13T11:45:35.397Z,20
2017-10-13T11:46:45.055Z,30
2017-10-13T11:47:54.120Z,25
2017-10-13T11:49:03.473Z,30
2017-10-13T11:50:12.466Z,45
2017-10-13T11:51:21.793Z,35
2017-10-13T11:52:31.448Z,35
2017-10-13T11:53:40.449Z,35
2017-10-13T11:54:49.123Z,35
2017-10-13T11:55:58.436Z,40
2017-10-13T11:57:07.771Z,40
2017-10-13T11:58:16.437Z,30
2017-10-13T11:59:25.782Z,35
2017-10-13T12:00:35.151Z,30
2017-10-13T12:01:44.483Z,30
2017-10-13T12:02:53.167Z,30
2017-10-13T12:04:02.169Z,25
2017-10-13T12:05:11.162Z,20
2017-10-13T12:06:20.481Z,25
2017-10-13T12:07:29.476Z,20
2017-10-13T12:08:38.451Z,20
2017-10-13T12:09:47.435Z,20
2017-10-13T12:10:56.742Z,20
2017-10-13T12:12:05.435Z,20
2017-10-13T12:13:14.419Z,20
2017-10-13T12:14:24.065Z,20
2017-10-13T12:15:33.034Z,20
2017-10-13T12:16:41.696Z,25
2017-10-13T12:17:50.754Z,20
2017-10-13T12:18:59.777Z,20
2017-10-13T12:20:08.473Z,30
2017-10-13T12:21:17.480Z,20
2017-10-13T12:22:26.476Z,20
2017-10-13T12:23:36.150Z,25
2017-10-13T12:24:45.477Z,35
2017-10-13T12:25:54.801Z,40
2017-10-13T12:27:04.136Z,30
2017-10-13T12:28:13.121Z,30
2017-10-13T12:29:22.112Z,35
2017-10-13T12:30:31.437Z,30
2017-10-13T12:31:41.085Z,40
2017-10-13T12:32:49.858Z,35
2017-10-13T12:33:58.843Z,35
2017-10-13T12:35:07.531Z,30
2017-10-13T12:36:16.560Z,30
2017-10-13T12:37:25.218Z,25
2017-10-13T12:38:34.541Z,20
2017-10-13T12:39:43.521Z,10
2017-10-13T12:40:52.864Z,10
2017-10-13T12:42:02.223Z,10
2017-10-13T12:43:11.261Z,10
2017-10-13T12:44:19.960Z,10
2017-10-13T12:45:29.275Z,10
2017-10-13T12:46:38.911Z,10
2017-10-13T12:47:47.593Z,15
2017-10-13T12:48:56.237Z,15
2017-10-13T12:50:05.230Z,10
2017-10-13T12:51:14.218Z,5
2017-10-13T12:52:23.193Z,10
2017-10-13T12:53:32.173Z,15
2017-10-13T12:54:41.819Z,25
2017-10-13T12:55:50.513Z,35
2017-10-13T12:57:00.158Z,35
2017-10-13T12:58:09.141Z,30
2017-10-13T12:59:17.807Z,25
2017-10-13T13:00:26.517Z,20
2017-10-13T13:01:35.532Z,15
2017-10-13T13:02:44.525Z,15
2017-10-13T13:03:53.860Z,15
2017-10-13T13:05:02.879Z,15
2017-10-13T13:06:12.195Z,15
2017-10-13T13:07:21.201Z,15
2017-10-13T13:08:30.197Z,15
2017-10-13T13:09:39.275Z,15
2017-10-13T13:10:48.623Z,15
2017-10-13T13:11:57.951Z,15
2017-10-13T13:13:07.290Z,20
2017-10-13T13:14:16.600Z,20
2017-10-13T13:15:25.979Z,20
2017-10-13T13:16:34.963Z,20
2017-10-13T13:17:44.085Z,20
2017-10-13T13:18:52.761Z,20
2017-10-13T13:20:01.427Z,15
2017-10-13T13:21:11.060Z,15
2017-10-13T13:22:20.049Z,20
2017-10-13T13:23:29.101Z,25
2017-10-13T13:24:37.786Z,20
2017-10-13T13:25:46.472Z,15
2017-10-13T13:26:55.795Z,15
2017-10-13T13:28:05.431Z,20
2017-10-13T13:29:14.200Z,15
2017-10-13T13:30:23.514Z,15
2017-10-13T13:31:32.836Z,15
2017-10-13T13:32:42.487Z,10
2017-10-13T13:33:51.154Z,10
2017-10-13T13:35:00.487Z,15
2017-10-13T13:36:09.810Z,15
2017-10-13T13:37:18.804Z,20
2017-10-13T13:38:27.783Z,20
2017-10-13T13:39:37.174Z,20
2017-10-13T13:40:46.498Z,20
2017-10-13T13:41:55.489Z,25
2017-10-13T13:43:04.177Z,25
2017-10-13T13:44:13.180Z,20
2017-10-13T13:45:22.511Z,25
2017-10-13T13:46:32.197Z,25
2017-10-13T13:47:40.868Z,30
2017-10-13T13:48:49.528Z,30
2017-10-13T13:49:59.514Z,25
2017-10-13T13:51:08.495Z,20
2017-10-13T13:52:17.148Z,15
2017-10-13T13:53:26.141Z,15
2017-10-13T13:54:35.484Z,15
2017-10-13T13:55:44.487Z,20
2017-10-13T13:56:53.484Z,15
2017-10-13T13:58:02.461Z,15
2017-10-13T13:59:11.432Z,15
2017-10-13T14:00:20.103Z,15
2017-10-13T14:01:28.758Z,15
2017-10-13T14:02:37.822Z,15
2017-10-13T14:03:46.796Z,20
2017-10-13T14:04:56.124Z,15
2017-10-13T14:06:05.119Z,15
2017-10-13T14:07:14.453Z,20
2017-10-13T14:08:23.120Z,20
2017-10-13T14:09:32.782Z,15
2017-10-13T14:10:41.785Z,15
2017-10-13T14:11:50.796Z,15
2017-10-13T14:12:59.474Z,15
2017-10-13T14:14:08.129Z,15
2017-10-13T14:15:17.466Z,15
2017-10-13T14:16:26.470Z,10
2017-10-13T14:17:35.796Z,10
2017-10-13T14:18:44.457Z,10
2017-10-13T14:19:53.468Z,10
2017-10-13T14:21:02.800Z,10
2017-10-13T14:22:11.852Z,10
2017-10-13T14:23:20.834Z,10
2017-10-13T14:24:29.824Z,15
2017-10-13T14:25:38.481Z,15
2017-10-13T14:26:47.778Z,15
2017-10-13T14:27:56.761Z,15
2017-10-13T14:29:05.755Z,15
2017-10-13T14:30:15.389Z,15
2017-10-13T14:31:25.050Z,20
2017-10-13T14:32:34.050Z,20
2017-10-13T14:33:43.057Z,15
2017-10-13T14:34:51.772Z,15
2017-10-13T14:36:00.796Z,15
2017-10-13T14:37:09.849Z,15
2017-10-13T14:38:19.249Z,15
2017-10-13T14:39:27.919Z,15
2017-10-13T14:40:36.899Z,15
2017-10-13T14:41:46.234Z,15
2017-10-13T14:42:55.249Z,15
2017-10-13T14:44:04.571Z,15
2017-10-13T14:45:13.915Z,15
2017-10-13T14:46:23.237Z,15
2017-10-13T14:47:31.911Z,15
2017-10-13T14:48:41.241Z,10
2017-10-13T14:49:50.254Z,15
2017-10-13T14:50:59.890Z,15
2017-10-13T14:52:09.195Z,15
2017-10-13T14:53:18.836Z,15
2017-10-13T14:54:27.485Z,15
2017-10-13T14:55:36.497Z,15
2017-10-13T14:56:45.815Z,15
2017-10-13T14:57:54.487Z,15
2017-10-13T14:59:03.141Z,15
2017-10-13T15:00:11.806Z,15
2017-10-13T15:01:20.801Z,15
2017-10-13T15:02:29.826Z,15
2017-10-13T15:03:38.810Z,15
2017-10-13T15:04:47.806Z,10
2017-10-13T15:05:57.124Z,10
2017-10-13T15:07:06.166Z,10
2017-10-13T15:08:15.831Z,10
2017-10-13T15:09:25.204Z,10
2017-10-13T15:10:34.203Z,10
2017-10-13T15:11:42.860Z,10
2017-10-13T15:12:52.170Z,10
2017-10-13T15:14:01.499Z,5
2017-10-13T15:15:10.907Z,5
2017-10-13T15:16:19.906Z,5
2017-10-13T15:17:29.252Z,5
2017-10-13T15:18:38.274Z,5
2017-10-13T15:19:47.267Z,5
2017-10-13T15:20:55.915Z,5
2017-10-13T15:22:04.906Z,5
2017-10-13T15:23:13.901Z,5
2017-10-13T15:24:22.902Z,5
2017-10-13T15:25:32.543Z,5
2017-10-13T15:26:41.585Z,5
2017-10-13T15:27:50.585Z,5
2017-10-13T15:28:59.590Z,5
2017-10-13T15:30:08.970Z,5
2017-10-13T15:31:17.953Z,5
2017-10-13T15:32:26.613Z,5
2017-10-13T15:33:35.273Z,5
2017-10-13T15:34:44.600Z,5
2017-10-13T15:35:53.255Z,5
2017-10-13T15:37:02.565Z,5
2017-10-13T15:38:12.219Z,5
2017-10-13T15:39:21.522Z,5
2017-10-13T15:40:30.177Z,5
2017-10-13T15:41:38.833Z,5
2017-10-13T15:42:48.137Z,5
2017-10-13T15:43:57.452Z,5
2017-10-13T15:45:06.784Z,5
2017-10-13T15:46:15.778Z,5
2017-10-13T15:47:24.781Z,5
2017-10-13T15:48:34.096Z,5
2017-10-13T15:49:43.421Z,5
2017-10-13T15:50:52.420Z,5
2017-10-13T15:52:01.415Z,5
2017-10-13T15:53:10.745Z,0
2017-10-13T15:54:19.401Z,0
2017-10-13T15:55:28.708Z,0
2017-10-13T15:56:37.363Z,0
2017-10-13T15:57:46.350Z,0
2017-10-13T15:58:55.362Z,0
2017-10-13T16:00:04.016Z,5
2017-10-13T16:01:13.033Z,5
2017-10-13T16:02:22.016Z,5
2017-10-13T16:03:30.674Z,5
2017-10-13T16:04:39.652Z,5
2017-10-13T16:05:48.628Z,5
2017-10-13T16:06:57.974Z,0
2017-10-13T16:08:06.960Z,0
2017-10-13T16:09:16.593Z,0
2017-10-13T16:10:25.995Z,0
2017-10-13T16:11:35.316Z,0
2017-10-13T16:12:43.980Z,0
2017-10-13T16:13:53.323Z,0
2017-10-13T16:15:03.035Z,0
2017-10-13T16:16:12.031Z,0
2017-10-13T16:17:20.691Z,0
2017-10-13T16:18:30.004Z,0
2017-10-13T16:19:39.304Z,0
2017-10-13T16:20:47.968Z,0
2017-10-13T16:21:57.623Z,0
2017-10-13T16:23:06.685Z,0
2017-10-13T16:24:15.338Z,0
2017-10-13T16:25:24.654Z,0
2017-10-13T16:26:33.323Z,0
2017-10-13T16:27:42.969Z,0
2017-10-13T16:28:52.291Z,0
2017-10-13T16:30:01.295Z,0
2017-10-13T16:31:10.292Z,0
2017-10-13T16:32:18.978Z,0
2017-10-13T16:33:28.012Z,0
2017-10-13T16:34:37.001Z,0
2017-10-13T16:35:45.681Z,0
2017-10-13T16:36:54.992Z,0
2017-10-13T16:38:03.994Z,0
2017-10-13T16:39:12.754Z,0
2017-10-13T16:40:22.079Z,0
2017-10-13T16:41:31.119Z,0
2017-10-13T16:42:40.162Z,0
2017-10-13T16:43:49.136Z,0
2017-10-13T16:44:58.138Z,0
2017-10-13T16:46:07.137Z,0
2017-10-13T16:47:17.156Z,0